createdAt,value
2019-04-05T00:00:15.546Z,0.00
2019-04-05T00:01:15.510Z,0.00
2019-04-05T00:02:15.501Z,0.00
2019-04-05T00:03:15.565Z,0.00
2019-04-05T00:04:15.493Z,0.00
2019-04-05T00:05:15.469Z,0.00
2019-04-05T00:06:15.456Z,0.00
2019-04-05T00:07:15.787Z,0.00
2019-04-05T00:08:15.444Z,0.00
2019-04-05T00:09:15.450Z,0.00
2019-04-05T00:10:15.425Z,0.00
2019-04-05T00:11:15.663Z,0.00
2019-04-05T00:12:15.428Z,0.00
2019-04-05T00:13:15.384Z,0.00
2019-04-05T00:14:15.373Z,0.00
2019-04-05T00:15:16.144Z,0.00
2019-04-05T00:16:15.344Z,0.00
2019-04-05T00:17:15.935Z,0.00
2019-04-05T00:18:17.066Z,0.00
2019-04-05T00:19:15.342Z,0.00
2019-04-05T00:20:15.311Z,0.00
2019-04-05T00:21:15.300Z,0.00
2019-04-05T00:22:15.286Z,0.00
2019-04-05T00:23:15.271Z,0.00
2019-04-05T00:24:15.283Z,0.00
2019-04-05T00:25:15.254Z,0.00
2019-04-05T00:26:15.246Z,0.00
2019-04-05T00:27:15.854Z,0.00
2019-04-05T00:28:15.253Z,0.00
2019-04-05T00:29:15.209Z,0.00
2019-04-05T00:30:15.224Z,0.00
2019-04-05T00:31:15.277Z,0.00
2019-04-05T00:32:15.181Z,0.00
2019-04-05T00:33:15.178Z,0.00
2019-04-05T00:34:15.189Z,0.00
2019-04-05T00:35:15.147Z,0.00
2019-04-05T00:36:15.150Z,0.00
2019-04-05T00:37:17.966Z,0.00
2019-04-05T00:38:15.186Z,0.00
2019-04-05T00:39:15.126Z,0.00
2019-04-05T00:40:15.122Z,0.00
2019-04-05T00:41:15.084Z,0.00
2019-04-05T00:42:15.180Z,0.00
2019-04-05T00:43:15.060Z,0.00
2019-04-05T00:44:15.054Z,0.00
2019-04-05T00:45:27.183Z,0.00
2019-04-05T00:46:16.033Z,0.00
2019-04-05T00:47:15.020Z,0.00
2019-04-05T00:48:15.850Z,0.00
2019-04-05T00:49:15.053Z,0.00
2019-04-05T00:50:15.007Z,0.00
2019-04-05T00:51:14.982Z,0.00
2019-04-05T00:52:14.969Z,0.00
2019-04-05T00:53:14.956Z,0.00
2019-04-05T00:54:14.955Z,0.00
2019-04-05T00:55:14.952Z,0.00
2019-04-05T00:56:15.459Z,0.00
2019-04-05T00:57:14.924Z,0.00
2019-04-05T00:58:14.943Z,0.00
2019-04-05T00:59:14.902Z,0.00
2019-04-05T01:00:14.899Z,0.00
2019-04-05T01:01:14.874Z,0.00
2019-04-05T01:02:14.860Z,0.00
2019-04-05T01:03:14.920Z,0.00
2019-04-05T01:04:14.840Z,0.00
2019-04-05T01:05:14.845Z,0.00
2019-04-05T01:06:14.817Z,0.00
2019-04-05T01:07:14.802Z,0.00
2019-04-05T01:08:14.796Z,0.00
2019-04-05T01:09:14.785Z,0.00
2019-04-05T01:10:14.808Z,0.00
2019-04-05T01:11:14.766Z,0.00
2019-04-05T01:12:14.920Z,0.00
2019-04-05T01:13:14.742Z,0.00
2019-04-05T01:14:14.763Z,0.00
2019-04-05T01:15:14.718Z,0.00
2019-04-05T01:16:14.740Z,0.00
2019-04-05T01:17:24.443Z,0.00
2019-04-05T01:18:15.686Z,0.00
2019-04-05T01:19:15.384Z,0.00
2019-04-05T01:20:14.663Z,0.00
2019-04-05T01:21:14.706Z,0.00
2019-04-05T01:22:14.648Z,0.00
2019-04-05T01:23:14.668Z,0.00
2019-04-05T01:24:14.627Z,0.00
2019-04-05T01:25:14.628Z,0.00
2019-04-05T01:26:14.602Z,0.00
2019-04-05T01:27:14.608Z,0.00
2019-04-05T01:28:14.581Z,0.00
2019-04-05T01:29:14.574Z,0.00
2019-04-05T01:30:14.566Z,0.00
2019-04-05T01:31:14.571Z,0.00
2019-04-05T01:32:14.556Z,0.00
2019-04-05T01:33:14.526Z,0.00
2019-04-05T01:34:14.522Z,0.00
2019-04-05T01:35:14.591Z,0.00
2019-04-05T01:36:15.347Z,0.00
2019-04-05T01:37:17.447Z,0.00
2019-04-05T01:38:14.475Z,0.00
2019-04-05T01:39:14.471Z,0.00
2019-04-05T01:40:14.453Z,0.00
2019-04-05T01:41:14.446Z,0.00
2019-04-05T01:42:14.460Z,0.00
2019-04-05T01:43:14.646Z,0.00
2019-04-05T01:44:14.419Z,0.00
2019-04-05T01:45:14.411Z,0.00
2019-04-05T01:46:14.390Z,0.00
2019-04-05T01:47:14.454Z,0.00
2019-04-05T01:48:14.390Z,0.00
2019-04-05T01:49:14.390Z,0.00
2019-04-05T01:50:14.346Z,0.00
2019-04-05T01:51:14.335Z,0.00
2019-04-05T01:52:14.329Z,0.00
2019-04-05T01:53:14.345Z,0.00
2019-04-05T01:54:14.302Z,0.00
2019-04-05T01:55:14.295Z,0.00
2019-04-05T01:56:14.282Z,0.00
2019-04-05T01:57:14.274Z,0.00
2019-04-05T01:58:14.266Z,0.00
2019-04-05T01:59:14.573Z,0.00
2019-04-05T02:00:14.242Z,0.00
2019-04-05T02:01:14.240Z,0.00
2019-04-05T02:02:14.416Z,0.00
2019-04-05T02:03:14.243Z,0.00
2019-04-05T02:04:14.840Z,0.00
2019-04-05T02:05:14.249Z,0.00
2019-04-05T02:06:14.188Z,0.00
2019-04-05T02:07:14.238Z,0.00
2019-04-05T02:08:14.155Z,0.00
2019-04-05T02:09:14.146Z,0.00
2019-04-05T02:10:14.139Z,0.00
2019-04-05T02:11:14.127Z,0.00
2019-04-05T02:12:14.139Z,0.00
2019-04-05T02:13:14.102Z,0.00
2019-04-05T02:14:14.093Z,0.00
2019-04-05T02:15:14.095Z,0.00
2019-04-05T02:16:14.075Z,0.00
2019-04-05T02:17:14.065Z,0.00
2019-04-05T02:18:14.066Z,0.00
2019-04-05T02:19:14.081Z,0.00
2019-04-05T02:20:14.032Z,0.00
2019-04-05T02:21:14.111Z,0.00
2019-04-05T02:22:14.210Z,0.00
2019-04-05T02:23:14.201Z,0.00
2019-04-05T02:24:13.996Z,0.00
2019-04-05T02:25:13.974Z,0.00
2019-04-05T02:26:13.967Z,0.00
2019-04-05T02:27:13.957Z,0.00
2019-04-05T02:28:14.006Z,0.00
2019-04-05T02:29:13.951Z,0.00
2019-04-05T02:30:13.932Z,0.00
2019-04-05T02:31:13.908Z,0.00
2019-04-05T02:32:14.233Z,0.00
2019-04-05T02:33:15.613Z,0.00
2019-04-05T02:34:13.880Z,0.00
2019-04-05T02:35:13.969Z,0.00
2019-04-05T02:36:13.862Z,0.00
2019-04-05T02:37:13.885Z,0.00
2019-04-05T02:38:13.842Z,0.00
2019-04-05T02:39:13.934Z,0.00
2019-04-05T02:40:16.636Z,0.00
2019-04-05T02:41:14.179Z,0.00
2019-04-05T02:42:13.818Z,0.00
2019-04-05T02:43:13.785Z,0.00
2019-04-05T02:44:13.843Z,0.00
2019-04-05T02:45:13.812Z,0.00
2019-04-05T02:46:23.277Z,0.00
2019-04-05T02:47:14.746Z,0.00
2019-04-05T02:48:13.737Z,0.00
2019-04-05T02:49:13.720Z,0.00
2019-04-05T02:50:13.692Z,0.00
2019-04-05T02:51:13.690Z,0.00
2019-04-05T02:52:14.271Z,0.00
2019-04-05T02:53:13.695Z,0.00
2019-04-05T02:54:13.737Z,0.00
2019-04-05T02:55:13.639Z,0.00
2019-04-05T02:56:13.638Z,0.00
2019-04-05T02:57:13.638Z,0.00
2019-04-05T02:58:13.633Z,0.00
2019-04-05T02:59:13.601Z,0.00
2019-04-05T03:00:13.594Z,0.00
2019-04-05T03:01:13.601Z,0.00
2019-04-05T03:02:13.591Z,0.00
2019-04-05T03:03:13.555Z,0.00
2019-04-05T03:04:13.543Z,0.00
2019-04-05T03:05:13.537Z,0.00
2019-04-05T03:06:13.530Z,0.00
2019-04-05T03:07:13.544Z,0.00
2019-04-05T03:08:13.497Z,0.00
2019-04-05T03:09:13.491Z,0.00
2019-04-05T03:10:13.495Z,0.00
2019-04-05T03:11:13.476Z,0.00
2019-04-05T03:12:13.478Z,0.00
2019-04-05T03:13:13.470Z,0.00
2019-04-05T03:14:13.438Z,0.00
2019-04-05T03:15:13.453Z,0.00
2019-04-05T03:16:13.414Z,0.00
2019-04-05T03:17:13.413Z,0.00
2019-04-05T03:18:13.415Z,0.00
2019-04-05T03:19:13.396Z,0.00
2019-04-05T03:20:13.381Z,0.00
2019-04-05T03:21:13.387Z,0.00
2019-04-05T03:22:13.377Z,0.00
2019-04-05T03:23:13.369Z,0.00
2019-04-05T03:24:13.351Z,0.00
2019-04-05T03:25:13.324Z,0.00
2019-04-05T03:26:13.315Z,0.00
2019-04-05T03:27:13.302Z,0.00
2019-04-05T03:28:13.290Z,0.00
2019-04-05T03:29:13.302Z,0.00
2019-04-05T03:30:13.275Z,0.00
2019-04-05T03:31:13.270Z,0.00
2019-04-05T03:32:13.252Z,0.00
2019-04-05T03:33:13.237Z,0.00
2019-04-05T03:34:13.250Z,0.00
2019-04-05T03:35:13.271Z,0.00
2019-04-05T03:36:13.219Z,0.00
2019-04-05T03:37:13.214Z,0.00
2019-04-05T03:38:13.222Z,0.00
2019-04-05T03:39:13.183Z,0.00
2019-04-05T03:40:14.166Z,0.00
2019-04-05T03:41:13.162Z,0.00
2019-04-05T03:42:13.152Z,0.00
2019-04-05T03:43:13.136Z,0.00
2019-04-05T03:44:13.169Z,0.00
2019-04-05T03:45:13.108Z,0.00
2019-04-05T03:46:13.115Z,0.00
2019-04-05T03:47:13.089Z,0.00
2019-04-05T03:48:13.084Z,0.00
2019-04-05T03:49:13.067Z,0.00
2019-04-05T03:50:13.084Z,0.00
2019-04-05T03:51:13.418Z,0.00
2019-04-05T03:52:13.038Z,0.00
2019-04-05T03:53:13.052Z,0.00
2019-04-05T03:54:13.029Z,0.00
2019-04-05T03:55:13.029Z,0.00
2019-04-05T03:56:12.999Z,0.00
2019-04-05T03:57:12.981Z,0.00
2019-04-05T03:58:12.968Z,0.00
2019-04-05T03:59:13.015Z,0.00
2019-04-05T04:00:12.951Z,0.00
2019-04-05T04:01:12.961Z,0.00
2019-04-05T04:02:12.929Z,0.00
2019-04-05T04:03:12.924Z,0.00
2019-04-05T04:04:12.906Z,0.00
2019-04-05T04:05:12.912Z,0.00
2019-04-05T04:06:12.910Z,0.00
2019-04-05T04:07:12.871Z,0.00
2019-04-05T04:08:12.863Z,0.00
2019-04-05T04:09:12.853Z,0.00
2019-04-05T04:10:12.840Z,0.00
2019-04-05T04:11:12.832Z,0.00
2019-04-05T04:12:12.839Z,0.00
2019-04-05T04:13:12.808Z,0.00
2019-04-05T04:14:12.801Z,0.00
2019-04-05T04:15:14.166Z,0.00
2019-04-05T04:16:12.784Z,0.00
2019-04-05T04:17:13.641Z,0.00
2019-04-05T04:18:12.772Z,0.00
2019-04-05T04:19:12.766Z,0.00
2019-04-05T04:20:12.731Z,0.00
2019-04-05T04:21:12.723Z,0.00
2019-04-05T04:22:12.714Z,0.00
2019-04-05T04:23:12.722Z,0.00
2019-04-05T04:24:12.697Z,0.00
2019-04-05T04:25:12.708Z,0.00
2019-04-05T04:26:12.686Z,0.00
2019-04-05T04:27:12.660Z,0.00
2019-04-05T04:28:12.703Z,0.00
2019-04-05T04:29:12.642Z,0.00
2019-04-05T04:30:12.640Z,0.00
2019-04-05T04:31:12.636Z,0.00
2019-04-05T04:32:12.618Z,0.00
2019-04-05T04:33:12.615Z,0.00
2019-04-05T04:34:12.589Z,4.00
2019-04-05T04:35:12.576Z,4.00
2019-04-05T04:36:13.197Z,4.00
2019-04-05T04:37:12.585Z,4.00
2019-04-05T04:38:12.548Z,4.00
2019-04-05T04:39:12.536Z,4.00
2019-04-05T04:40:12.517Z,4.00
2019-04-05T04:41:12.531Z,8.00
2019-04-05T04:42:12.531Z,8.00
2019-04-05T04:43:12.499Z,8.00
2019-04-05T04:44:12.477Z,12.00
2019-04-05T04:45:13.079Z,12.00
2019-04-05T04:46:12.480Z,16.00
2019-04-05T04:47:25.775Z,16.00
2019-04-05T04:48:13.462Z,20.00
2019-04-05T04:49:12.440Z,24.00
2019-04-05T04:50:12.426Z,28.00
2019-04-05T04:51:12.450Z,32.00
2019-04-05T04:52:12.414Z,36.00
2019-04-05T04:53:12.386Z,48.00
2019-04-05T04:54:20.294Z,48.00
2019-04-05T04:55:12.372Z,56.00
2019-04-05T04:56:12.356Z,64.00
2019-04-05T04:57:12.373Z,64.00
2019-04-05T04:58:12.354Z,64.00
2019-04-05T04:59:12.343Z,68.00
2019-04-05T05:00:14.410Z,80.00
2019-04-05T05:01:12.425Z,92.00
2019-04-05T05:02:21.243Z,104.00
2019-04-05T05:03:12.627Z,112.00
2019-04-05T05:04:14.393Z,120.00
2019-04-05T05:05:12.333Z,128.00
2019-04-05T05:06:12.284Z,140.00
2019-04-05T05:07:12.234Z,144.00
2019-04-05T05:08:12.454Z,152.00
2019-04-05T05:09:12.212Z,160.00
2019-04-05T05:10:12.280Z,164.00
2019-04-05T05:11:14.704Z,164.00
2019-04-05T05:12:12.294Z,164.00
2019-04-05T05:13:12.167Z,160.00
2019-04-05T05:14:13.012Z,164.00
2019-04-05T05:15:12.152Z,168.00
2019-04-05T05:16:12.134Z,168.00
2019-04-05T05:17:12.125Z,176.00
2019-04-05T05:18:12.441Z,176.00
2019-04-05T05:19:12.161Z,180.00
2019-04-05T05:20:12.270Z,192.00
2019-04-05T05:21:12.653Z,204.00
2019-04-05T05:22:13.297Z,220.00
2019-04-05T05:23:12.169Z,232.00
2019-04-05T05:24:12.336Z,240.00
2019-04-05T05:25:12.241Z,252.00
2019-04-05T05:26:12.056Z,260.00
2019-04-05T05:27:12.156Z,276.00
2019-04-05T05:28:13.373Z,292.00
2019-04-05T05:29:12.771Z,304.00
2019-04-05T05:30:12.110Z,316.00
2019-04-05T05:31:11.977Z,328.00
2019-04-05T05:32:12.026Z,336.00
2019-04-05T05:33:11.957Z,344.00
2019-04-05T05:34:12.209Z,340.00
2019-04-05T05:35:11.961Z,336.00
2019-04-05T05:36:12.023Z,332.00
2019-04-05T05:37:12.022Z,336.00
2019-04-05T05:38:12.050Z,344.00
2019-04-05T05:39:11.969Z,372.00
2019-04-05T05:40:11.884Z,400.00
2019-04-05T05:41:12.276Z,408.00
2019-04-05T05:42:12.006Z,404.00
2019-04-05T05:43:11.971Z,404.00
2019-04-05T05:44:11.926Z,416.00
2019-04-05T05:45:11.882Z,420.00
2019-04-05T05:46:11.974Z,412.00
2019-04-05T05:47:11.976Z,408.00
2019-04-05T05:48:11.846Z,424.00
2019-04-05T05:49:11.897Z,444.00
2019-04-05T05:50:11.942Z,452.00
2019-04-05T05:51:11.810Z,436.00
2019-04-05T05:52:11.759Z,404.00
2019-04-05T05:53:11.749Z,396.00
2019-04-05T05:54:11.745Z,436.00
2019-04-05T05:55:11.714Z,520.00
2019-04-05T05:56:11.709Z,576.00
2019-04-05T05:57:11.714Z,592.00
2019-04-05T05:58:11.716Z,616.00
2019-04-05T05:59:11.708Z,748.00
2019-04-05T06:00:11.667Z,988.00
2019-04-05T06:01:11.659Z,1140.00
2019-04-05T06:02:11.645Z,1216.00
2019-04-05T06:03:12.038Z,1260.00
2019-04-05T06:04:12.849Z,1424.00
2019-04-05T06:05:18.322Z,1652.00
2019-04-05T06:06:11.598Z,1888.00
2019-04-05T06:07:11.586Z,2016.00
2019-04-05T06:08:11.580Z,2044.00
2019-04-05T06:09:14.853Z,2092.00
2019-04-05T06:10:11.561Z,2192.00
2019-04-05T06:11:11.550Z,2288.00
2019-04-05T06:12:11.541Z,2408.00
2019-04-05T06:13:11.546Z,2376.00
2019-04-05T06:14:11.532Z,2316.00
2019-04-05T06:15:11.501Z,2424.00
2019-04-05T06:16:11.490Z,2560.00
2019-04-05T06:17:11.498Z,2616.00
2019-04-05T06:18:12.670Z,2520.00
2019-04-05T06:19:11.483Z,2448.00
2019-04-05T06:20:11.451Z,2516.00
2019-04-05T06:21:11.436Z,2664.00
2019-04-05T06:22:11.430Z,2756.00
2019-04-05T06:23:11.419Z,2780.00
2019-04-05T06:24:11.435Z,2812.00
2019-04-05T06:25:11.416Z,3064.00
2019-04-05T06:26:11.382Z,3444.00
2019-04-05T06:27:11.375Z,3824.00
2019-04-05T06:28:11.387Z,3992.00
2019-04-05T06:29:11.475Z,4004.00
2019-04-05T06:30:11.376Z,3968.00
2019-04-05T06:31:11.389Z,3976.00
2019-04-05T06:32:11.378Z,4004.00
2019-04-05T06:33:11.317Z,4060.00
2019-04-05T06:34:11.298Z,4124.00
2019-04-05T06:35:11.291Z,4200.00
2019-04-05T06:36:11.283Z,4312.00
2019-04-05T06:37:11.267Z,4400.00
2019-04-05T06:38:11.284Z,4416.00
2019-04-05T06:39:11.255Z,4268.00
2019-04-05T06:40:11.233Z,4208.00
2019-04-05T06:41:11.218Z,4448.00
2019-04-05T06:42:11.214Z,4684.00
2019-04-05T06:43:11.204Z,4676.00
2019-04-05T06:44:11.217Z,4560.00
2019-04-05T06:45:11.184Z,4600.00
2019-04-05T06:46:11.172Z,4760.00
2019-04-05T06:47:11.158Z,4708.00
2019-04-05T06:48:19.119Z,4528.00
2019-04-05T06:49:12.170Z,4268.00
2019-04-05T06:50:11.142Z,4052.00
2019-04-05T06:51:11.181Z,3776.00
2019-04-05T06:52:11.101Z,3592.00
2019-04-05T06:53:11.090Z,3548.00
2019-04-05T06:54:11.087Z,3728.00
2019-04-05T06:55:11.093Z,4328.00
2019-04-05T06:56:11.062Z,5400.00
2019-04-05T06:57:11.054Z,6048.00
2019-04-05T06:58:11.047Z,6436.00
2019-04-05T06:59:11.028Z,6808.00
2019-04-05T07:00:11.035Z,6960.00
2019-04-05T07:01:11.005Z,7116.00
2019-04-05T07:02:11.012Z,7072.00
2019-04-05T07:03:13.559Z,6928.00
2019-04-05T07:04:11.432Z,6692.00
2019-04-05T07:05:12.373Z,6308.00
2019-04-05T07:06:10.993Z,6092.00
2019-04-05T07:07:10.958Z,6084.00
2019-04-05T07:08:10.965Z,6152.00
2019-04-05T07:09:10.926Z,6056.00
2019-04-05T07:10:10.985Z,5968.00
2019-04-05T07:11:10.904Z,5724.00
2019-04-05T07:12:10.917Z,5964.00
2019-04-05T07:13:10.888Z,6516.00
2019-04-05T07:14:10.879Z,7228.00
2019-04-05T07:15:10.856Z,7408.00
2019-04-05T07:16:11.217Z,7596.00
2019-04-05T07:17:10.838Z,7520.00
2019-04-05T07:18:10.820Z,7616.00
2019-04-05T07:19:10.856Z,7620.00
2019-04-05T07:20:10.902Z,7324.00
2019-04-05T07:21:10.788Z,7648.00
2019-04-05T07:22:10.815Z,7864.00
2019-04-05T07:23:10.775Z,7796.00
2019-04-05T07:24:10.769Z,7712.00
2019-04-05T07:25:10.749Z,7408.00
2019-04-05T07:26:10.740Z,7244.00
2019-04-05T07:27:11.061Z,7548.00
2019-04-05T07:28:11.120Z,7868.00
2019-04-05T07:29:10.734Z,8336.00
2019-04-05T07:30:10.751Z,8808.00
2019-04-05T07:31:10.695Z,8372.00
2019-04-05T07:32:10.702Z,9504.00
2019-04-05T07:33:10.685Z,9924.00
2019-04-05T07:34:10.653Z,9732.00
2019-04-05T07:35:10.667Z,10324.00
2019-04-05T07:36:10.631Z,10164.00
2019-04-05T07:37:10.623Z,10308.00
2019-04-05T07:38:10.603Z,10508.00
2019-04-05T07:39:10.599Z,10956.00
2019-04-05T07:40:10.587Z,10940.00
2019-04-05T07:41:10.597Z,10440.00
2019-04-05T07:42:10.564Z,10192.00
2019-04-05T07:43:10.557Z,10376.00
2019-04-05T07:44:10.543Z,10140.00
2019-04-05T07:45:10.546Z,9528.00
2019-04-05T07:46:10.553Z,8684.00
2019-04-05T07:47:10.512Z,8484.00
2019-04-05T07:48:10.586Z,8564.00
2019-04-05T07:49:10.491Z,8620.00
2019-04-05T07:50:10.485Z,8412.00
2019-04-05T07:51:10.502Z,8532.00
2019-04-05T07:52:12.932Z,8572.00
2019-04-05T07:53:10.454Z,8616.00
2019-04-05T07:54:10.494Z,8184.00
2019-04-05T07:55:10.424Z,8000.00
2019-04-05T07:56:10.430Z,8116.00
2019-04-05T07:57:10.404Z,8604.00
2019-04-05T07:58:10.396Z,8840.00
2019-04-05T07:59:10.384Z,8584.00
2019-04-05T08:00:10.378Z,8204.00
2019-04-05T08:01:10.380Z,7828.00
2019-04-05T08:02:10.370Z,7692.00
2019-04-05T08:03:10.338Z,7932.00
2019-04-05T08:04:10.330Z,7812.00
2019-04-05T08:05:10.317Z,7816.00
2019-04-05T08:06:10.311Z,8028.00
2019-04-05T08:07:10.297Z,8288.00
2019-04-05T08:08:10.331Z,8496.00
2019-04-05T08:09:10.282Z,8308.00
2019-04-05T08:10:10.286Z,7820.00
2019-04-05T08:11:10.251Z,7348.00
2019-04-05T08:12:10.263Z,7560.00
2019-04-05T08:13:10.234Z,7392.00
2019-04-05T08:14:10.251Z,7344.00
2019-04-05T08:15:10.230Z,7176.00
2019-04-05T08:16:10.197Z,6496.00
2019-04-05T08:17:10.206Z,6476.00
2019-04-05T08:18:10.179Z,6720.00
2019-04-05T08:19:10.168Z,6764.00
2019-04-05T08:20:10.157Z,7324.00
2019-04-05T08:21:10.151Z,7836.00
2019-04-05T08:22:10.158Z,8168.00
2019-04-05T08:23:10.153Z,7976.00
2019-04-05T08:24:10.110Z,7480.00
2019-04-05T08:25:10.100Z,7740.00
2019-04-05T08:26:10.099Z,8156.00
2019-04-05T08:27:10.098Z,8492.00
2019-04-05T08:28:10.069Z,8524.00
2019-04-05T08:29:10.055Z,8504.00
2019-04-05T08:30:10.052Z,8448.00
2019-04-05T08:31:11.081Z,8324.00
2019-04-05T08:32:14.720Z,8124.00
2019-04-05T08:33:11.017Z,7972.00
2019-04-05T08:34:10.002Z,7952.00
2019-04-05T08:35:09.996Z,7924.00
2019-04-05T08:36:10.002Z,7980.00
2019-04-05T08:37:09.988Z,8292.00
2019-04-05T08:38:09.966Z,8792.00
2019-04-05T08:39:09.959Z,9296.00
2019-04-05T08:40:09.942Z,9568.00
2019-04-05T08:41:09.936Z,9776.00
2019-04-05T08:42:10.992Z,9784.00
2019-04-05T08:43:09.906Z,9940.00
2019-04-05T08:44:09.898Z,10260.00
2019-04-05T08:45:09.893Z,10608.00
2019-04-05T08:46:09.875Z,10744.00
2019-04-05T08:47:09.882Z,11000.00
2019-04-05T08:48:09.855Z,11240.00
2019-04-05T08:49:11.323Z,11376.00
2019-04-05T08:50:09.836Z,11044.00
2019-04-05T08:51:09.825Z,10668.00
2019-04-05T08:52:09.862Z,11164.00
2019-04-05T08:53:09.810Z,11304.00
2019-04-05T08:54:09.789Z,11604.00
2019-04-05T08:55:09.785Z,12024.00
2019-04-05T08:56:09.787Z,11884.00
2019-04-05T08:57:09.765Z,12056.00
2019-04-05T08:58:09.799Z,12228.00
2019-04-05T08:59:09.737Z,11568.00
2019-04-05T09:00:09.725Z,10596.00
2019-04-05T09:01:09.717Z,10672.00
2019-04-05T09:02:09.707Z,11276.00
2019-04-05T09:03:11.983Z,11180.00
2019-04-05T09:04:09.682Z,11264.00
2019-04-05T09:05:09.681Z,11528.00
2019-04-05T09:06:09.656Z,11704.00
2019-04-05T09:07:12.067Z,11696.00
2019-04-05T09:08:10.493Z,11348.00
2019-04-05T09:09:09.790Z,10888.00
2019-04-05T09:10:09.907Z,10344.00
2019-04-05T09:11:09.835Z,9752.00
2019-04-05T09:12:09.621Z,9260.00
2019-04-05T09:13:09.730Z,9348.00
2019-04-05T09:14:09.593Z,9420.00
2019-04-05T09:15:09.589Z,9000.00
2019-04-05T09:16:11.733Z,9872.00
2019-04-05T09:17:09.545Z,11952.00
2019-04-05T09:18:09.547Z,14140.00
2019-04-05T09:19:09.522Z,15400.00
2019-04-05T09:20:09.507Z,15520.00
2019-04-05T09:21:10.223Z,13688.00
2019-04-05T09:22:09.494Z,11312.00
2019-04-05T09:23:09.498Z,10008.00
2019-04-05T09:24:09.505Z,10452.00
2019-04-05T09:25:09.458Z,11548.00
2019-04-05T09:26:09.446Z,12376.00
2019-04-05T09:27:09.434Z,12024.00
2019-04-05T09:28:09.428Z,11352.00
2019-04-05T09:29:09.595Z,10852.00
2019-04-05T09:30:09.422Z,10648.00
2019-04-05T09:31:09.410Z,10728.00
2019-04-05T09:32:09.382Z,10644.00
2019-04-05T09:33:09.368Z,10056.00
2019-04-05T09:34:09.361Z,9108.00
2019-04-05T09:35:09.386Z,8116.00
2019-04-05T09:36:09.348Z,7648.00
2019-04-05T09:37:09.333Z,7616.00
2019-04-05T09:38:09.329Z,7244.00
2019-04-05T09:39:12.639Z,6608.00
2019-04-05T09:40:10.301Z,5904.00
2019-04-05T09:41:09.279Z,5264.00
2019-04-05T09:42:09.276Z,4872.00
2019-04-05T09:43:09.262Z,4608.00
2019-04-05T09:44:09.249Z,4684.00
2019-04-05T09:45:09.286Z,4736.00
2019-04-05T09:46:09.226Z,4748.00
2019-04-05T09:47:09.217Z,4744.00
2019-04-05T09:48:09.208Z,4804.00
2019-04-05T09:49:09.205Z,4916.00
2019-04-05T09:50:09.203Z,5240.00
2019-04-05T09:51:09.257Z,5924.00
2019-04-05T09:52:09.176Z,6800.00
2019-04-05T09:53:09.156Z,7356.00
2019-04-05T09:54:09.146Z,7572.00
2019-04-05T09:55:09.161Z,7736.00
2019-04-05T09:56:09.121Z,8320.00
2019-04-05T09:57:09.224Z,8928.00
2019-04-05T09:58:10.210Z,9464.00
2019-04-05T09:59:09.418Z,10044.00
2019-04-05T10:00:09.655Z,10672.00
2019-04-05T10:01:09.403Z,11224.00
2019-04-05T10:02:09.898Z,11732.00
2019-04-05T10:03:09.319Z,12080.00
2019-04-05T10:04:09.773Z,12716.00
2019-04-05T10:05:09.081Z,13192.00
2019-04-05T10:06:09.249Z,13020.00
2019-04-05T10:07:09.093Z,12680.00
2019-04-05T10:08:09.007Z,12576.00
2019-04-05T10:09:09.041Z,12188.00
2019-04-05T10:10:08.990Z,11580.00
2019-04-05T10:11:08.969Z,11408.00
2019-04-05T10:12:08.951Z,11844.00
2019-04-05T10:13:09.952Z,13336.00
2019-04-05T10:14:08.946Z,15368.00
2019-04-05T10:15:08.916Z,16992.00
2019-04-05T10:16:08.993Z,17344.00
2019-04-05T10:17:08.913Z,16764.00
2019-04-05T10:18:09.849Z,15888.00
2019-04-05T10:19:08.890Z,14960.00
2019-04-05T10:20:08.867Z,14800.00
2019-04-05T10:21:08.853Z,14036.00
2019-04-05T10:22:08.835Z,12320.00
2019-04-05T10:23:08.844Z,10764.00
2019-04-05T10:24:08.829Z,9680.00
2019-04-05T10:25:08.807Z,8592.00
2019-04-05T10:26:08.811Z,7848.00
2019-04-05T10:27:08.835Z,7460.00
2019-04-05T10:28:08.799Z,7108.00
2019-04-05T10:29:08.768Z,6536.00
2019-04-05T10:30:08.874Z,5880.00
2019-04-05T10:31:10.248Z,5356.00
2019-04-05T10:32:08.739Z,4932.00
2019-04-05T10:33:08.716Z,4664.00
2019-04-05T10:34:08.734Z,4624.00
2019-04-05T10:35:08.703Z,4892.00
2019-04-05T10:36:09.274Z,5276.00
2019-04-05T10:37:08.672Z,5512.00
2019-04-05T10:38:08.669Z,5460.00
2019-04-05T10:39:08.687Z,5432.00
2019-04-05T10:40:08.690Z,5576.00
2019-04-05T10:41:08.635Z,6220.00
2019-04-05T10:42:08.645Z,7636.00
2019-04-05T10:43:08.650Z,9064.00
2019-04-05T10:44:08.603Z,10616.00
2019-04-05T10:45:08.615Z,12272.00
2019-04-05T10:46:08.577Z,13888.00
2019-04-05T10:47:08.576Z,14420.00
2019-04-05T10:48:08.558Z,14252.00
2019-04-05T10:49:08.543Z,13740.00
2019-04-05T10:50:08.556Z,13336.00
2019-04-05T10:51:08.547Z,12932.00
2019-04-05T10:52:08.515Z,12228.00
2019-04-05T10:53:08.522Z,11132.00
2019-04-05T10:54:09.580Z,10036.00
2019-04-05T10:55:08.507Z,9180.00
2019-04-05T10:56:08.479Z,8360.00
2019-04-05T10:57:08.601Z,7880.00
2019-04-05T10:58:08.445Z,8068.00
2019-04-05T10:59:08.447Z,8180.00
2019-04-05T11:00:08.444Z,8068.00
2019-04-05T11:01:08.424Z,7744.00
2019-04-05T11:02:08.430Z,7420.00
2019-04-05T11:03:08.396Z,7208.00
2019-04-05T11:04:08.385Z,7248.00
2019-04-05T11:05:08.398Z,7148.00
2019-04-05T11:06:08.359Z,6888.00
2019-04-05T11:07:08.351Z,6636.00
2019-04-05T11:08:08.360Z,6692.00
2019-04-05T11:09:08.337Z,7080.00
2019-04-05T11:10:08.330Z,7924.00
2019-04-05T11:11:08.338Z,8772.00
2019-04-05T11:12:08.712Z,9084.00
2019-04-05T11:13:08.290Z,9472.00
2019-04-05T11:14:14.033Z,9732.00
2019-04-05T11:15:09.299Z,9716.00
2019-04-05T11:16:08.279Z,9456.00
2019-04-05T11:17:08.252Z,8948.00
2019-04-05T11:18:08.244Z,8184.00
2019-04-05T11:19:08.220Z,7384.00
2019-04-05T11:20:20.722Z,6612.00
2019-04-05T11:21:09.229Z,6156.00
2019-04-05T11:22:08.196Z,5972.00
2019-04-05T11:23:08.286Z,6348.00
2019-04-05T11:24:08.188Z,6992.00
2019-04-05T11:25:08.153Z,7404.00
2019-04-05T11:26:08.194Z,7564.00
2019-04-05T11:27:08.137Z,7448.00
2019-04-05T11:28:08.155Z,7188.00
2019-04-05T11:29:08.149Z,6820.00
2019-04-05T11:30:08.098Z,6584.00
2019-04-05T11:31:08.108Z,6316.00
2019-04-05T11:32:08.079Z,6168.00
2019-04-05T11:33:08.193Z,6356.00
2019-04-05T11:34:08.068Z,6908.00
2019-04-05T11:35:08.053Z,8160.00
2019-04-05T11:36:08.072Z,9404.00
2019-04-05T11:37:08.032Z,9956.00
2019-04-05T11:38:08.023Z,9760.00
2019-04-05T11:39:08.018Z,9320.00
2019-04-05T11:40:08.004Z,8400.00
2019-04-05T11:41:07.989Z,7540.00
2019-04-05T11:42:08.134Z,7404.00
2019-04-05T11:43:09.192Z,7564.00
2019-04-05T11:44:08.792Z,7840.00
2019-04-05T11:45:08.478Z,8176.00
2019-04-05T11:46:08.035Z,8376.00
2019-04-05T11:47:08.030Z,8228.00
2019-04-05T11:48:08.043Z,8064.00
2019-04-05T11:49:08.145Z,7780.00
2019-04-05T11:50:08.956Z,7516.00
2019-04-05T11:51:08.271Z,7332.00
2019-04-05T11:52:08.083Z,7216.00
2019-04-05T11:53:07.858Z,7084.00
2019-04-05T11:54:07.845Z,6968.00
2019-04-05T11:55:07.872Z,6892.00
2019-04-05T11:56:14.455Z,6944.00
2019-04-05T11:57:08.854Z,7160.00
2019-04-05T11:58:07.803Z,7412.00
2019-04-05T11:59:07.788Z,7608.00
2019-04-05T12:00:07.778Z,7808.00
2019-04-05T12:01:07.774Z,8068.00
2019-04-05T12:02:07.755Z,8380.00
2019-04-05T12:03:09.722Z,8732.00
2019-04-05T12:04:07.733Z,8824.00
2019-04-05T12:05:07.736Z,8660.00
2019-04-05T12:06:07.727Z,8568.00
2019-04-05T12:07:07.703Z,8504.00
2019-04-05T12:08:07.722Z,8516.00
2019-04-05T12:09:07.977Z,8672.00
2019-04-05T12:10:07.669Z,8812.00
2019-04-05T12:11:07.670Z,8732.00
2019-04-05T12:12:07.665Z,8636.00
2019-04-05T12:13:07.672Z,8660.00
2019-04-05T12:14:07.622Z,8592.00
2019-04-05T12:15:07.614Z,8416.00
2019-04-05T12:16:10.371Z,8004.00
2019-04-05T12:17:09.716Z,7512.00
2019-04-05T12:18:07.583Z,7344.00
2019-04-05T12:19:07.596Z,7604.00
2019-04-05T12:20:07.568Z,8072.00
2019-04-05T12:21:07.556Z,8232.00
2019-04-05T12:22:09.178Z,7972.00
2019-04-05T12:23:07.525Z,7660.00
2019-04-05T12:24:07.561Z,7484.00
2019-04-05T12:25:07.517Z,7360.00
2019-04-05T12:26:07.501Z,7200.00
2019-04-05T12:27:07.513Z,6876.00
2019-04-05T12:28:10.430Z,6560.00
2019-04-05T12:29:07.461Z,6404.00
2019-04-05T12:30:07.455Z,6496.00
2019-04-05T12:31:07.458Z,6672.00